sensor_id;sensor_type;location;lat;lon;timestamp;pressure;altitude;pressure_sealevel;temperature;humidity
65010;BME280;51556;50.002;22.014;2023-02-19T00:00:30;98757.80;;;7.59;76.37
65010;BME280;51556;50.002;22.014;2023-02-19T00:02:55;98754.06;;;7.62;76.24
65010;BME280;51556;50.002;22.014;2023-02-19T00:05:22;98748.42;;;7.63;76.09
65010;BME280;51556;50.002;22.014;2023-02-19T00:07:48;98748.29;;;7.69;76.19
65010;BME280;51556;50.002;22.014;2023-02-19T00:10:13;98747.05;;;7.70;76.13
65010;BME280;51556;50.002;22.014;2023-02-19T00:12:39;98752.41;;;7.73;75.79
65010;BME280;51556;50.002;22.014;2023-02-19T00:15:04;98752.92;;;7.73;75.42
65010;BME280;51556;50.002;22.014;2023-02-19T00:17:30;98756.36;;;7.68;75.25
65010;BME280;51556;50.002;22.014;2023-02-19T00:19:56;98764.88;;;7.64;75.26
65010;BME280;51556;50.002;22.014;2023-02-19T00:22:21;98766.75;;;7.59;74.89
65010;BME280;51556;50.002;22.014;2023-02-19T00:24:47;98760.63;;;7.50;75.12
65010;BME280;51556;50.002;22.014;2023-02-19T00:27:13;98750.70;;;7.47;74.63
65010;BME280;51556;50.002;22.014;2023-02-19T00:29:38;98759.84;;;7.46;74.92
65010;BME280;51556;50.002;22.014;2023-02-19T00:32:04;98777.54;;;7.45;75.20
65010;BME280;51556;50.002;22.014;2023-02-19T00:34:29;98780.73;;;7.44;74.94
65010;BME280;51556;50.002;22.014;2023-02-19T00:36:54;98787.48;;;7.40;74.89
65010;BME280;51556;50.002;22.014;2023-02-19T00:39:20;98780.70;;;7.39;74.71
65010;BME280;51556;50.002;22.014;2023-02-19T00:41:46;98783.73;;;7.35;74.89
65010;BME280;51556;50.002;22.014;2023-02-19T00:44:12;98779.02;;;7.34;75.13
65010;BME280;51556;50.002;22.014;2023-02-19T00:46:40;98774.70;;;7.32;74.74
65010;BME280;51556;50.002;22.014;2023-02-19T00:49:07;98780.88;;;7.29;74.57
65010;BME280;51556;50.002;22.014;2023-02-19T00:51:35;98782.37;;;7.25;74.61
65010;BME280;51556;50.002;22.014;2023-02-19T00:54:01;98784.05;;;7.20;74.47
65010;BME280;51556;50.002;22.014;2023-02-19T00:56:26;98781.86;;;7.16;74.65
65010;BME280;51556;50.002;22.014;2023-02-19T00:58:52;98779.98;;;7.14;74.54
65010;BME280;51556;50.002;22.014;2023-02-19T01:01:18;98784.44;;;7.10;74.45
65010;BME280;51556;50.002;22.014;2023-02-19T01:03:44;98787.79;;;7.09;74.21
65010;BME280;51556;50.002;22.014;2023-02-19T01:06:12;98774.67;;;7.01;74.07
65010;BME280;51556;50.002;22.014;2023-02-19T01:08:38;98781.96;;;6.95;74.03
65010;BME280;51556;50.002;22.014;2023-02-19T01:11:05;98781.89;;;6.90;73.98
65010;BME280;51556;50.002;22.014;2023-02-19T01:13:31;98778.30;;;6.85;73.80
65010;BME280;51556;50.002;22.014;2023-02-19T01:16:05;98767.05;;;6.80;73.65
65010;BME280;51556;50.002;22.014;2023-02-19T01:18:31;98758.38;;;6.75;73.84
65010;BME280;51556;50.002;22.014;2023-02-19T01:20:57;98757.30;;;6.76;73.68
65010;BME280;51556;50.002;22.014;2023-02-19T01:23:22;98761.18;;;6.75;73.58
65010;BME280;51556;50.002;22.014;2023-02-19T01:25:48;98758.23;;;6.74;73.46
65010;BME280;51556;50.002;22.014;2023-02-19T01:28:13;98762.40;;;6.76;73.60
65010;BME280;51556;50.002;22.014;2023-02-19T01:30:39;98757.20;;;6.82;73.49
65010;BME280;51556;50.002;22.014;2023-02-19T01:33:07;98754.49;;;6.86;73.27
65010;BME280;51556;50.002;22.014;2023-02-19T01:35:33;98746.61;;;6.87;73.07
65010;BME280;51556;50.002;22.014;2023-02-19T01:38:02;98756.05;;;6.87;72.94
65010;BME280;51556;50.002;22.014;2023-02-19T01:40:27;98759.55;;;6.87;72.77
65010;BME280;51556;50.002;22.014;2023-02-19T01:42:53;98761.19;;;6.84;72.87
65010;BME280;51556;50.002;22.014;2023-02-19T01:45:27;98765.44;;;6.81;72.80
65010;BME280;51556;50.002;22.014;2023-02-19T01:47:58;98769.02;;;6.77;72.83
65010;BME280;51556;50.002;22.014;2023-02-19T01:50:27;98768.13;;;6.78;72.94
65010;BME280;51556;50.002;22.014;2023-02-19T01:52:53;98773.83;;;6.82;73.11
65010;BME280;51556;50.002;22.014;2023-02-19T01:55:19;98769.76;;;6.84;72.56
65010;BME280;51556;50.002;22.014;2023-02-19T01:57:47;98767.00;;;6.82;72.75
65010;BME280;51556;50.002;22.014;2023-02-19T02:00:16;98768.58;;;6.81;72.18
65010;BME280;51556;50.002;22.014;2023-02-19T02:02:44;98768.49;;;6.77;72.33
65010;BME280;51556;50.002;22.014;2023-02-19T02:05:23;98763.52;;;6.72;72.28
65010;BME280;51556;50.002;22.014;2023-02-19T02:07:49;98761.98;;;6.70;72.07
65010;BME280;51556;50.002;22.014;2023-02-19T02:10:33;98762.59;;;6.67;72.20
65010;BME280;51556;50.002;22.014;2023-02-19T02:12:58;98756.73;;;6.62;72.05
65010;BME280;51556;50.002;22.014;2023-02-19T02:15:28;98753.83;;;6.58;72.17
65010;BME280;51556;50.002;22.014;2023-02-19T02:18:07;98749.34;;;6.55;72.31
65010;BME280;51556;50.002;22.014;2023-02-19T02:20:57;98746.92;;;6.54;72.22
65010;BME280;51556;50.002;22.014;2023-02-19T02:23:55;98738.22;;;6.52;72.21
65010;BME280;51556;50.002;22.014;2023-02-19T02:31:55;98720.27;;;6.49;72.29
65010;BME280;51556;50.002;22.014;2023-02-19T02:34:38;98716.95;;;6.48;72.23
65010;BME280;51556;50.002;22.014;2023-02-19T02:37:06;98718.92;;;6.45;72.24
65010;BME280;51556;50.002;22.014;2023-02-19T02:39:35;98720.84;;;6.46;72.28
65010;BME280;51556;50.002;22.014;2023-02-19T02:42:00;98726.39;;;6.48;72.31
65010;BME280;51556;50.002;22.014;2023-02-19T02:44:44;98723.47;;;6.45;72.25
65010;BME280;51556;50.002;22.014;2023-02-19T02:47:35;98725.59;;;6.45;72.46
65010;BME280;51556;50.002;22.014;2023-02-19T02:50:07;98736.40;;;6.46;72.36
65010;BME280;51556;50.002;22.014;2023-02-19T02:52:36;98744.23;;;6.48;72.31
65010;BME280;51556;50.002;22.014;2023-02-19T02:55:22;98763.80;;;6.49;72.34
65010;BME280;51556;50.002;22.014;2023-02-19T02:57:49;98763.05;;;6.52;72.34
65010;BME280;51556;50.002;22.014;2023-02-19T03:00:15;98763.34;;;6.54;72.41
65010;BME280;51556;50.002;22.014;2023-02-19T03:02:42;98766.80;;;6.57;72.42
65010;BME280;51556;50.002;22.014;2023-02-19T03:05:23;98766.85;;;6.54;72.30
65010;BME280;51556;50.002;22.014;2023-02-19T03:08:15;98760.66;;;6.48;72.50
65010;BME280;51556;50.002;22.014;2023-02-19T03:13:28;98751.35;;;6.51;72.51
65010;BME280;51556;50.002;22.014;2023-02-19T03:16:18;98750.62;;;6.52;72.49
65010;BME280;51556;50.002;22.014;2023-02-19T03:19:04;98747.30;;;6.60;72.52
65010;BME280;51556;50.002;22.014;2023-02-19T03:24:22;98751.28;;;6.64;72.05
65010;BME280;51556;50.002;22.014;2023-02-19T03:27:07;98760.37;;;6.64;71.91
65010;BME280;51556;50.002;22.014;2023-02-19T03:29:36;98759.88;;;6.62;72.05
65010;BME280;51556;50.002;22.014;2023-02-19T03:32:08;98767.73;;;6.63;71.78
65010;BME280;51556;50.002;22.014;2023-02-19T03:34:55;98774.48;;;6.66;71.79
65010;BME280;51556;50.002;22.014;2023-02-19T03:37:35;98779.51;;;6.68;71.52
65010;BME280;51556;50.002;22.014;2023-02-19T03:40:02;98777.91;;;6.69;71.53
65010;BME280;51556;50.002;22.014;2023-02-19T03:42:46;98774.35;;;6.72;71.52
65010;BME280;51556;50.002;22.014;2023-02-19T03:45:28;98769.52;;;6.78;71.55
65010;BME280;51556;50.002;22.014;2023-02-19T03:56:05;98774.31;;;6.93;70.61
65010;BME280;51556;50.002;22.014;2023-02-19T03:58:50;98776.73;;;6.94;70.79
65010;BME280;51556;50.002;22.014;2023-02-19T04:01:30;98773.96;;;6.93;70.47
65010;BME280;51556;50.002;22.014;2023-02-19T04:04:19;98769.45;;;6.91;70.49
65010;BME280;51556;50.002;22.014;2023-02-19T04:06:51;98769.31;;;6.89;70.20
65010;BME280;51556;50.002;22.014;2023-02-19T04:09:19;98766.70;;;6.88;70.20
65010;BME280;51556;50.002;22.014;2023-02-19T04:11:47;98763.48;;;6.92;70.20
65010;BME280;51556;50.002;22.014;2023-02-19T04:14:19;98767.84;;;6.93;70.12
65010;BME280;51556;50.002;22.014;2023-02-19T04:16:50;98767.77;;;6.97;70.43
65010;BME280;51556;50.002;22.014;2023-02-19T04:19:19;98769.79;;;7.00;70.20
65010;BME280;51556;50.002;22.014;2023-02-19T04:21:48;98767.21;;;6.97;69.88
65010;BME280;51556;50.002;22.014;2023-02-19T04:24:21;98757.69;;;6.92;69.97
65010;BME280;51556;50.002;22.014;2023-02-19T04:26:47;98763.54;;;6.89;69.75
65010;BME280;51556;50.002;22.014;2023-02-19T04:29:13;98768.61;;;6.89;69.90
65010;BME280;51556;50.002;22.014;2023-02-19T04:31:38;98767.92;;;6.89;69.94
65010;BME280;51556;50.002;22.014;2023-02-19T04:34:04;98766.92;;;6.86;69.79
65010;BME280;51556;50.002;22.014;2023-02-19T04:36:31;98764.13;;;6.86;69.79
65010;BME280;51556;50.002;22.014;2023-02-19T04:38:57;98763.25;;;6.86;69.86
65010;BME280;51556;50.002;22.014;2023-02-19T04:41:22;98762.29;;;6.82;69.52
65010;BME280;51556;50.002;22.014;2023-02-19T04:43:48;98761.18;;;6.75;69.58
65010;BME280;51556;50.002;22.014;2023-02-19T04:46:13;98754.59;;;6.72;69.96
65010;BME280;51556;50.002;22.014;2023-02-19T04:48:39;98756.92;;;6.78;69.89
65010;BME280;51556;50.002;22.014;2023-02-19T04:51:08;98763.08;;;6.85;69.94
65010;BME280;51556;50.002;22.014;2023-02-19T04:53:34;98768.26;;;6.89;69.64
65010;BME280;51556;50.002;22.014;2023-02-19T04:56:12;98764.85;;;6.93;69.76
65010;BME280;51556;50.002;22.014;2023-02-19T04:58:37;98769.69;;;6.97;69.83
65010;BME280;51556;50.002;22.014;2023-02-19T05:01:03;98768.10;;;6.97;69.54
65010;BME280;51556;50.002;22.014;2023-02-19T05:03:29;98770.83;;;6.92;69.31
65010;BME280;51556;50.002;22.014;2023-02-19T05:05:55;98768.45;;;6.88;69.42
65010;BME280;51556;50.002;22.014;2023-02-19T05:08:20;98772.63;;;6.80;69.45
65010;BME280;51556;50.002;22.014;2023-02-19T05:10:45;98771.64;;;6.77;69.62
65010;BME280;51556;50.002;22.014;2023-02-19T05:13:11;98771.65;;;6.76;69.58
65010;BME280;51556;50.002;22.014;2023-02-19T05:15:36;98776.17;;;6.78;69.53
65010;BME280;51556;50.002;22.014;2023-02-19T05:18:02;98775.35;;;6.75;69.35
65010;BME280;51556;50.002;22.014;2023-02-19T05:20:27;98772.90;;;6.76;69.50
65010;BME280;51556;50.002;22.014;2023-02-19T05:22:53;98770.91;;;6.79;69.92
65010;BME280;51556;50.002;22.014;2023-02-19T05:25:18;98768.19;;;6.84;69.80
65010;BME280;51556;50.002;22.014;2023-02-19T05:27:43;98764.69;;;6.93;69.61
65010;BME280;51556;50.002;22.014;2023-02-19T05:30:10;98759.34;;;6.98;69.60
65010;BME280;51556;50.002;22.014;2023-02-19T05:32:36;98756.86;;;6.99;69.64
65010;BME280;51556;50.002;22.014;2023-02-19T05:35:01;98755.69;;;7.04;69.79
65010;BME280;51556;50.002;22.014;2023-02-19T05:37:27;98751.73;;;7.09;69.85
65010;BME280;51556;50.002;22.014;2023-02-19T05:39:52;98743.80;;;7.12;69.73
65010;BME280;51556;50.002;22.014;2023-02-19T05:42:18;98744.30;;;7.13;69.76
65010;BME280;51556;50.002;22.014;2023-02-19T05:44:43;98740.38;;;7.16;70.02
65010;BME280;51556;50.002;22.014;2023-02-19T05:47:09;98739.41;;;7.20;70.05
65010;BME280;51556;50.002;22.014;2023-02-19T05:49:34;98741.92;;;7.18;70.09
65010;BME280;51556;50.002;22.014;2023-02-19T05:51:59;98743.52;;;7.17;70.22
65010;BME280;51556;50.002;22.014;2023-02-19T05:54:27;98741.20;;;7.18;70.39
65010;BME280;51556;50.002;22.014;2023-02-19T05:56:53;98740.98;;;7.21;70.55
65010;BME280;51556;50.002;22.014;2023-02-19T05:59:21;98738.34;;;7.22;70.67
65010;BME280;51556;50.002;22.014;2023-02-19T06:01:49;98744.76;;;7.24;70.59
65010;BME280;51556;50.002;22.014;2023-02-19T06:04:15;98742.44;;;7.26;70.60
65010;BME280;51556;50.002;22.014;2023-02-19T06:06:42;98735.05;;;7.27;70.79
65010;BME280;51556;50.002;22.014;2023-02-19T06:09:26;98727.66;;;7.21;70.56
65010;BME280;51556;50.002;22.014;2023-02-19T06:11:51;98728.79;;;7.10;70.66
65010;BME280;51556;50.002;22.014;2023-02-19T06:14:16;98726.61;;;6.98;70.65
65010;BME280;51556;50.002;22.014;2023-02-19T06:16:42;98724.14;;;6.91;70.93
65010;BME280;51556;50.002;22.014;2023-02-19T06:19:07;98722.29;;;6.87;71.32
65010;BME280;51556;50.002;22.014;2023-02-19T06:21:33;98723.28;;;6.90;71.62
65010;BME280;51556;50.002;22.014;2023-02-19T06:24:03;98718.86;;;6.92;71.44
65010;BME280;51556;50.002;22.014;2023-02-19T06:26:29;98716.38;;;6.94;71.80
65010;BME280;51556;50.002;22.014;2023-02-19T06:28:54;98716.34;;;6.95;72.15
65010;BME280;51556;50.002;22.014;2023-02-19T06:31:21;98714.49;;;7.00;72.22
65010;BME280;51556;50.002;22.014;2023-02-19T06:33:46;98714.39;;;7.05;72.07
65010;BME280;51556;50.002;22.014;2023-02-19T06:36:14;98708.70;;;7.08;72.06
65010;BME280;51556;50.002;22.014;2023-02-19T06:38:40;98708.65;;;7.10;72.20
65010;BME280;51556;50.002;22.014;2023-02-19T06:41:07;98707.52;;;7.14;72.14
65010;BME280;51556;50.002;22.014;2023-02-19T06:43:33;98699.84;;;7.13;72.08
65010;BME280;51556;50.002;22.014;2023-02-19T06:45:59;98694.36;;;7.15;72.01
65010;BME280;51556;50.002;22.014;2023-02-19T06:48:29;98686.84;;;7.15;71.92
65010;BME280;51556;50.002;22.014;2023-02-19T06:50:55;98682.09;;;7.09;71.69
65010;BME280;51556;50.002;22.014;2023-02-19T06:53:21;98681.27;;;7.00;71.95
65010;BME280;51556;50.002;22.014;2023-02-19T06:58:21;98684.04;;;7.00;72.64
65010;BME280;51556;50.002;22.014;2023-02-19T07:00:46;98680.77;;;7.06;72.70
65010;BME280;51556;50.002;22.014;2023-02-19T07:03:12;98679.20;;;7.12;72.82
65010;BME280;51556;50.002;22.014;2023-02-19T07:05:37;98673.30;;;7.18;72.55
65010;BME280;51556;50.002;22.014;2023-02-19T07:08:03;98670.73;;;7.23;72.61
65010;BME280;51556;50.002;22.014;2023-02-19T07:10:28;98672.20;;;7.28;72.68
65010;BME280;51556;50.002;22.014;2023-02-19T07:12:53;98669.01;;;7.30;72.57
65010;BME280;51556;50.002;22.014;2023-02-19T07:15:19;98673.48;;;7.34;72.72
65010;BME280;51556;50.002;22.014;2023-02-19T07:17:44;98666.39;;;7.37;72.64
65010;BME280;51556;50.002;22.014;2023-02-19T07:20:10;98667.64;;;7.36;72.85
65010;BME280;51556;50.002;22.014;2023-02-19T07:22:35;98668.88;;;7.35;72.87
65010;BME280;51556;50.002;22.014;2023-02-19T07:25:01;98664.53;;;7.35;72.94
65010;BME280;51556;50.002;22.014;2023-02-19T07:27:26;98663.21;;;7.38;73.19
65010;BME280;51556;50.002;22.014;2023-02-19T07:29:52;98665.30;;;7.45;73.16
65010;BME280;51556;50.002;22.014;2023-02-19T07:32:17;98661.92;;;7.47;73.11
65010;BME280;51556;50.002;22.014;2023-02-19T07:34:42;98664.13;;;7.51;73.47
65010;BME280;51556;50.002;22.014;2023-02-19T07:37:08;98664.73;;;7.55;73.27
65010;BME280;51556;50.002;22.014;2023-02-19T07:39:33;98661.21;;;7.55;73.17
65010;BME280;51556;50.002;22.014;2023-02-19T07:41:59;98657.65;;;7.57;73.27
65010;BME280;51556;50.002;22.014;2023-02-19T07:44:24;98655.73;;;7.57;73.40
65010;BME280;51556;50.002;22.014;2023-02-19T07:46:50;98659.13;;;7.54;73.57
65010;BME280;51556;50.002;22.014;2023-02-19T07:49:15;98651.73;;;7.49;73.61
65010;BME280;51556;50.002;22.014;2023-02-19T07:51:40;98640.05;;;7.47;73.98
65010;BME280;51556;50.002;22.014;2023-02-19T07:54:08;98639.66;;;7.48;74.35
65010;BME280;51556;50.002;22.014;2023-02-19T07:56:33;98641.05;;;7.49;74.32
65010;BME280;51556;50.002;22.014;2023-02-19T07:58:59;98640.62;;;7.52;74.30
65010;BME280;51556;50.002;22.014;2023-02-19T08:01:24;98639.48;;;7.56;74.32
65010;BME280;51556;50.002;22.014;2023-02-19T08:04:10;98636.91;;;7.53;74.19
65010;BME280;51556;50.002;22.014;2023-02-19T08:06:35;98638.11;;;7.54;74.73
65010;BME280;51556;50.002;22.014;2023-02-19T08:09:02;98643.73;;;7.61;74.47
65010;BME280;51556;50.002;22.014;2023-02-19T08:11:28;98645.83;;;7.61;74.39
65010;BME280;51556;50.002;22.014;2023-02-19T08:14:12;98642.67;;;7.61;74.34
65010;BME280;51556;50.002;22.014;2023-02-19T08:16:37;98641.23;;;7.63;74.56
65010;BME280;51556;50.002;22.014;2023-02-19T08:19:03;98645.89;;;7.73;74.76
65010;BME280;51556;50.002;22.014;2023-02-19T08:21:28;98647.10;;;7.74;74.69
65010;BME280;51556;50.002;22.014;2023-02-19T08:23:54;98648.26;;;7.77;75.01
65010;BME280;51556;50.002;22.014;2023-02-19T08:26:19;98646.59;;;7.79;75.09
65010;BME280;51556;50.002;22.014;2023-02-19T08:28:45;98640.70;;;7.77;75.04
65010;BME280;51556;50.002;22.014;2023-02-19T08:31:11;98642.67;;;7.76;75.07
65010;BME280;51556;50.002;22.014;2023-02-19T08:33:38;98643.28;;;7.79;75.16
65010;BME280;51556;50.002;22.014;2023-02-19T08:36:05;98638.23;;;7.78;75.19
65010;BME280;51556;50.002;22.014;2023-02-19T08:38:33;98641.95;;;7.82;75.23
65010;BME280;51556;50.002;22.014;2023-02-19T08:41:03;98643.95;;;7.86;75.64
65010;BME280;51556;50.002;22.014;2023-02-19T08:43:29;98647.68;;;7.91;75.30
65010;BME280;51556;50.002;22.014;2023-02-19T08:45:55;98656.88;;;7.94;75.19
65010;BME280;51556;50.002;22.014;2023-02-19T08:48:20;98654.42;;;7.94;75.03
65010;BME280;51556;50.002;22.014;2023-02-19T08:50:55;98650.10;;;7.92;75.12
65010;BME280;51556;50.002;22.014;2023-02-19T08:53:21;98655.11;;;7.95;75.00
65010;BME280;51556;50.002;22.014;2023-02-19T08:55:47;98660.23;;;7.93;74.89
65010;BME280;51556;50.002;22.014;2023-02-19T08:58:12;98659.13;;;7.89;74.74
65010;BME280;51556;50.002;22.014;2023-02-19T09:00:38;98655.33;;;7.86;75.04
65010;BME280;51556;50.002;22.014;2023-02-19T09:03:03;98663.08;;;7.85;74.44
65010;BME280;51556;50.002;22.014;2023-02-19T09:05:29;98670.05;;;7.80;74.27
65010;BME280;51556;50.002;22.014;2023-02-19T09:07:54;98669.18;;;7.73;74.42
65010;BME280;51556;50.002;22.014;2023-02-19T09:10:21;98671.73;;;7.69;74.39
65010;BME280;51556;50.002;22.014;2023-02-19T09:12:46;98669.69;;;7.67;74.31
65010;BME280;51556;50.002;22.014;2023-02-19T09:15:12;98667.40;;;7.67;74.28
65010;BME280;51556;50.002;22.014;2023-02-19T09:17:38;98662.67;;;7.67;74.36
65010;BME280;51556;50.002;22.014;2023-02-19T09:20:03;98662.31;;;7.68;74.47
65010;BME280;51556;50.002;22.014;2023-02-19T09:22:28;98656.30;;;7.70;74.67
65010;BME280;51556;50.002;22.014;2023-02-19T09:24:54;98654.98;;;7.74;74.53
65010;BME280;51556;50.002;22.014;2023-02-19T09:27:19;98659.11;;;7.77;74.60
65010;BME280;51556;50.002;22.014;2023-02-19T09:29:46;98656.50;;;7.81;74.27
65010;BME280;51556;50.002;22.014;2023-02-19T09:32:11;98658.57;;;7.83;74.34
65010;BME280;51556;50.002;22.014;2023-02-19T09:34:37;98654.37;;;7.83;74.53
65010;BME280;51556;50.002;22.014;2023-02-19T09:37:04;98658.20;;;7.84;74.12
65010;BME280;51556;50.002;22.014;2023-02-19T09:39:30;98658.38;;;7.84;74.26
65010;BME280;51556;50.002;22.014;2023-02-19T09:41:58;98658.73;;;7.83;74.24
65010;BME280;51556;50.002;22.014;2023-02-19T09:44:34;98652.94;;;7.79;74.24
65010;BME280;51556;50.002;22.014;2023-02-19T09:47:02;98657.84;;;7.79;74.07
65010;BME280;51556;50.002;22.014;2023-02-19T09:49:35;98657.84;;;7.79;74.41
65010;BME280;51556;50.002;22.014;2023-02-19T09:52:05;98653.02;;;7.75;73.90
65010;BME280;51556;50.002;22.014;2023-02-19T09:54:33;98657.55;;;7.69;74.06
65010;BME280;51556;50.002;22.014;2023-02-19T09:57:02;98659.22;;;7.65;74.61
65010;BME280;51556;50.002;22.014;2023-02-19T09:59:32;98658.86;;;7.65;74.97
65010;BME280;51556;50.002;22.014;2023-02-19T10:02:13;98666.65;;;7.69;74.92
65010;BME280;51556;50.002;22.014;2023-02-19T10:04:42;98657.36;;;7.69;74.31
65010;BME280;51556;50.002;22.014;2023-02-19T10:07:20;98659.08;;;7.64;73.77
65010;BME280;51556;50.002;22.014;2023-02-19T10:09:56;98661.23;;;7.62;74.08
65010;BME280;51556;50.002;22.014;2023-02-19T10:12:29;98666.34;;;7.60;73.96
65010;BME280;51556;50.002;22.014;2023-02-19T10:15:00;98660.23;;;7.52;73.67
65010;BME280;51556;50.002;22.014;2023-02-19T10:17:30;98664.80;;;7.51;73.99
65010;BME280;51556;50.002;22.014;2023-02-19T10:19:59;98664.36;;;7.48;73.75
65010;BME280;51556;50.002;22.014;2023-02-19T10:22:27;98664.42;;;7.45;74.03
65010;BME280;51556;50.002;22.014;2023-02-19T10:24:55;98662.76;;;7.42;73.82
65010;BME280;51556;50.002;22.014;2023-02-19T10:27:21;98667.08;;;7.38;73.59
65010;BME280;51556;50.002;22.014;2023-02-19T10:29:48;98668.89;;;7.35;73.84
65010;BME280;51556;50.002;22.014;2023-02-19T10:32:17;98665.69;;;7.37;73.95
65010;BME280;51556;50.002;22.014;2023-02-19T10:34:45;98662.73;;;7.44;74.21
65010;BME280;51556;50.002;22.014;2023-02-19T10:37:14;98661.55;;;7.49;74.26
65010;BME280;51556;50.002;22.014;2023-02-19T10:39:44;98657.75;;;7.54;74.21
65010;BME280;51556;50.002;22.014;2023-02-19T10:42:19;98662.23;;;7.56;74.22
65010;BME280;51556;50.002;22.014;2023-02-19T10:44:51;98657.84;;;7.57;74.15
65010;BME280;51556;50.002;22.014;2023-02-19T10:47:41;98657.59;;;7.53;73.70
65010;BME280;51556;50.002;22.014;2023-02-19T10:50:15;98654.72;;;7.48;73.32
65010;BME280;51556;50.002;22.014;2023-02-19T10:52:51;98658.63;;;7.46;73.78
65010;BME280;51556;50.002;22.014;2023-02-19T10:57:45;98661.27;;;7.46;73.34
65010;BME280;51556;50.002;22.014;2023-02-19T11:02:43;98659.70;;;7.45;73.38
65010;BME280;51556;50.002;22.014;2023-02-19T11:07:37;98660.77;;;7.45;73.40
65010;BME280;51556;50.002;22.014;2023-02-19T11:10:04;98662.92;;;7.43;73.30
65010;BME280;51556;50.002;22.014;2023-02-19T11:12:32;98667.54;;;7.40;73.18
65010;BME280;51556;50.002;22.014;2023-02-19T11:15:19;98670.79;;;7.36;72.93
65010;BME280;51556;50.002;22.014;2023-02-19T11:17:53;98669.29;;;7.33;72.86
65010;BME280;51556;50.002;22.014;2023-02-19T11:20:19;98672.05;;;7.27;72.70
65010;BME280;51556;50.002;22.014;2023-02-19T11:22:45;98677.70;;;7.17;72.41
65010;BME280;51556;50.002;22.014;2023-02-19T11:27:56;98678.32;;;6.98;72.44
65010;BME280;51556;50.002;22.014;2023-02-19T11:30:41;98677.16;;;6.95;72.56
65010;BME280;51556;50.002;22.014;2023-02-19T11:35:44;98680.40;;;6.90;72.98
65010;BME280;51556;50.002;22.014;2023-02-19T11:38:13;98683.75;;;6.89;72.67
65010;BME280;51556;50.002;22.014;2023-02-19T11:40:43;98686.81;;;6.85;72.09
65010;BME280;51556;50.002;22.014;2023-02-19T11:49:37;98696.99;;;6.50;72.06
65010;BME280;51556;50.002;22.014;2023-02-19T11:54:53;98705.09;;;6.20;71.11
65010;BME280;51556;50.002;22.014;2023-02-19T11:57:47;98709.91;;;6.04;71.58
65010;BME280;51556;50.002;22.014;2023-02-19T12:03:21;98718.89;;;5.91;72.41
65010;BME280;51556;50.002;22.014;2023-02-19T12:05:51;98717.38;;;5.87;72.25
65010;BME280;51556;50.002;22.014;2023-02-19T12:22:01;98730.80;;;5.64;72.99
65010;BME280;51556;50.002;22.014;2023-02-19T12:24:46;98735.09;;;5.58;73.31
65010;BME280;51556;50.002;22.014;2023-02-19T12:30:14;98733.20;;;5.46;73.67
65010;BME280;51556;50.002;22.014;2023-02-19T12:32:48;98738.66;;;5.42;73.30
65010;BME280;51556;50.002;22.014;2023-02-19T12:38:28;98747.95;;;5.39;73.84
65010;BME280;51556;50.002;22.014;2023-02-19T12:41:22;98744.23;;;5.43;73.76
65010;BME280;51556;50.002;22.014;2023-02-19T12:44:14;98746.98;;;5.47;73.84
65010;BME280;51556;50.002;22.014;2023-02-19T12:46:46;98749.69;;;5.53;73.70
65010;BME280;51556;50.002;22.014;2023-02-19T12:51:59;98757.40;;;5.60;74.06
65010;BME280;51556;50.002;22.014;2023-02-19T12:54:29;98761.54;;;5.64;73.66
65010;BME280;51556;50.002;22.014;2023-02-19T12:57:05;98769.59;;;5.63;73.89
65010;BME280;51556;50.002;22.014;2023-02-19T12:59:46;98764.06;;;5.49;73.78
65010;BME280;51556;50.002;22.014;2023-02-19T13:02:18;98759.88;;;5.36;73.74
65010;BME280;51556;50.002;22.014;2023-02-19T13:07:27;98773.61;;;5.15;74.44
65010;BME280;51556;50.002;22.014;2023-02-19T13:09:58;98774.51;;;5.13;74.97
65010;BME280;51556;50.002;22.014;2023-02-19T13:12:37;98767.32;;;5.15;75.08
65010;BME280;51556;50.002;22.014;2023-02-19T13:15:13;98771.95;;;5.20;75.04
65010;BME280;51556;50.002;22.014;2023-02-19T13:17:46;98775.85;;;5.16;74.88
65010;BME280;51556;50.002;22.014;2023-02-19T13:23:25;98780.05;;;5.16;74.99
65010;BME280;51556;50.002;22.014;2023-02-19T13:34:24;98782.95;;;5.20;75.19
65010;BME280;51556;50.002;22.014;2023-02-19T13:36:53;98785.86;;;5.23;75.36
65010;BME280;51556;50.002;22.014;2023-02-19T13:39:20;98793.20;;;5.22;75.32
65010;BME280;51556;50.002;22.014;2023-02-19T13:44:19;98794.23;;;5.23;75.02
65010;BME280;51556;50.002;22.014;2023-02-19T13:46:48;98798.55;;;5.27;75.59
65010;BME280;51556;50.002;22.014;2023-02-19T13:51:56;98805.04;;;5.38;75.29
65010;BME280;51556;50.002;22.014;2023-02-19T13:54:25;98808.86;;;5.40;75.23
65010;BME280;51556;50.002;22.014;2023-02-19T13:59:49;98820.59;;;5.11;75.77
65010;BME280;51556;50.002;22.014;2023-02-19T14:02:26;98827.43;;;5.07;76.31
65010;BME280;51556;50.002;22.014;2023-02-19T14:09:55;98834.77;;;5.05;76.10
65010;BME280;51556;50.002;22.014;2023-02-19T14:12:33;98838.64;;;5.04;75.58
65010;BME280;51556;50.002;22.014;2023-02-19T14:17:49;98843.40;;;4.98;75.70
65010;BME280;51556;50.002;22.014;2023-02-19T14:33:14;98857.11;;;4.73;75.24
65010;BME280;51556;50.002;22.014;2023-02-19T14:35:43;98853.45;;;4.72;75.38
65010;BME280;51556;50.002;22.014;2023-02-19T14:38:17;98861.48;;;4.73;75.56
65010;BME280;51556;50.002;22.014;2023-02-19T14:40:45;98870.20;;;4.73;75.28
65010;BME280;51556;50.002;22.014;2023-02-19T14:43:17;98873.39;;;4.66;75.93
65010;BME280;51556;50.002;22.014;2023-02-19T14:48:24;98873.51;;;4.53;76.43
65010;BME280;51556;50.002;22.014;2023-02-19T14:50:54;98869.04;;;4.48;77.33
65010;BME280;51556;50.002;22.014;2023-02-19T14:53:21;98871.95;;;4.50;76.99
65010;BME280;51556;50.002;22.014;2023-02-19T14:55:49;98872.27;;;4.54;76.68
65010;BME280;51556;50.002;22.014;2023-02-19T14:58:27;98870.72;;;4.53;76.70
65010;BME280;51556;50.002;22.014;2023-02-19T15:00:53;98876.16;;;4.49;76.76
65010;BME280;51556;50.002;22.014;2023-02-19T15:03:35;98881.20;;;4.50;76.93
65010;BME280;51556;50.002;22.014;2023-02-19T15:06:04;98885.07;;;4.47;77.10